createdAt,value
2023-05-31T00:02:11.215Z,7.82
2023-05-31T00:04:38.903Z,9.00
2023-05-31T00:07:07.331Z,7.13
2023-05-31T00:09:35.017Z,7.53
2023-05-31T00:12:02.729Z,8.75
2023-05-31T00:14:30.677Z,8.27
2023-05-31T00:19:30.133Z,9.10
2023-05-31T00:21:57.819Z,5.75
2023-05-31T00:24:25.504Z,8.02
2023-05-31T00:26:53.119Z,7.93
2023-05-31T00:29:20.707Z,7.13
2023-05-31T00:31:48.283Z,9.80
2023-05-31T00:34:21.945Z,9.05
2023-05-31T00:36:49.547Z,8.60
2023-05-31T00:39:17.471Z,10.57
2023-05-31T00:41:45.068Z,10.07
2023-05-31T00:44:12.656Z,10.05
2023-05-31T00:46:42.537Z,13.73
2023-05-31T00:49:10.396Z,10.93
2023-05-31T00:51:38.542Z,12.30
2023-05-31T00:54:06.936Z,11.30
2023-05-31T00:56:35.049Z,11.32
2023-05-31T00:59:03.117Z,12.57
2023-05-31T01:01:34.865Z,12.43
2023-05-31T01:04:04.319Z,10.48
2023-05-31T01:06:35.905Z,13.40
2023-05-31T01:09:06.348Z,12.32
2023-05-31T01:12:11.018Z,12.70
2023-05-31T01:14:56.859Z,12.57
2023-05-31T01:17:35.782Z,13.00
2023-05-31T01:20:10.193Z,11.57
2023-05-31T01:23:02.862Z,13.63
2023-05-31T01:25:47.839Z,11.70
2023-05-31T01:28:17.884Z,12.40
2023-05-31T01:30:49.880Z,10.95
2023-05-31T01:33:19.294Z,11.13
2023-05-31T01:35:46.897Z,9.15
2023-05-31T01:38:14.592Z,9.98
2023-05-31T01:40:42.603Z,11.23
2023-05-31T01:43:11.736Z,8.98
2023-05-31T01:45:40.528Z,13.53
2023-05-31T01:48:11.225Z,8.70
2023-05-31T01:50:41.306Z,10.50
2023-05-31T01:53:09.051Z,12.40
2023-05-31T01:55:36.674Z,11.70
2023-05-31T01:58:05.964Z,12.40
2023-05-31T02:00:36.242Z,11.00
2023-05-31T02:03:06.071Z,10.73
2023-05-31T02:05:34.070Z,10.02
2023-05-31T02:08:01.744Z,11.27
2023-05-31T02:10:29.670Z,10.40
2023-05-31T02:12:57.539Z,10.85
2023-05-31T02:15:25.200Z,9.77
2023-05-31T02:17:52.809Z,8.35
2023-05-31T02:20:20.764Z,9.25
2023-05-31T02:22:48.992Z,8.63
2023-05-31T02:25:19.678Z,10.98
2023-05-31T02:27:47.269Z,9.45
2023-05-31T02:30:16.506Z,11.15
2023-05-31T02:32:45.509Z,10.23
2023-05-31T02:35:13.377Z,9.97
2023-05-31T02:37:42.474Z,10.20
2023-05-31T02:40:10.228Z,9.25
2023-05-31T02:42:40.968Z,7.75
2023-05-31T02:45:11.185Z,7.90
2023-05-31T02:47:40.099Z,8.83
2023-05-31T02:50:09.244Z,10.45
2023-05-31T02:52:42.058Z,13.38
2023-05-31T02:55:21.831Z,14.25
2023-05-31T02:58:09.765Z,14.18
2023-05-31T03:00:42.075Z,10.27
2023-05-31T03:03:11.788Z,11.30
2023-05-31T03:05:49.754Z,9.88
2023-05-31T03:08:17.939Z,14.23
2023-05-31T03:10:45.944Z,11.95
2023-05-31T03:13:13.702Z,14.63
2023-05-31T03:15:41.378Z,14.40
2023-05-31T03:18:09.256Z,10.35
2023-05-31T03:20:39.855Z,13.45
2023-05-31T03:23:08.399Z,13.15
2023-05-31T03:25:36.584Z,12.60
2023-05-31T03:28:04.914Z,12.18
2023-05-31T03:30:33.798Z,11.88
2023-05-31T03:33:04.192Z,14.20
2023-05-31T03:35:32.425Z,11.55
2023-05-31T03:38:03.213Z,11.27
2023-05-31T03:40:31.762Z,11.93
2023-05-31T03:43:00.113Z,12.15
2023-05-31T03:45:29.342Z,12.38
2023-05-31T03:47:57.568Z,11.77
2023-05-31T03:50:25.227Z,15.83
2023-05-31T03:52:52.889Z,12.65
2023-05-31T03:55:21.860Z,12.60
2023-05-31T03:57:50.202Z,12.10
2023-05-31T04:00:19.565Z,13.98
2023-05-31T04:03:04.334Z,15.73
2023-05-31T04:05:34.846Z,11.65
2023-05-31T04:08:03.344Z,12.32
2023-05-31T04:10:33.979Z,12.60
2023-05-31T04:13:01.857Z,14.43
2023-05-31T04:15:30.357Z,13.17
2023-05-31T04:18:01.737Z,15.07
2023-05-31T04:20:29.840Z,13.40
2023-05-31T04:22:57.558Z,13.10
2023-05-31T04:25:26.420Z,15.70
2023-05-31T04:27:55.925Z,11.43
2023-05-31T04:30:25.395Z,16.65
2023-05-31T04:32:54.101Z,13.00
2023-05-31T04:35:23.430Z,12.88
2023-05-31T04:37:54.034Z,13.25
2023-05-31T04:40:21.820Z,15.13
2023-05-31T04:42:49.661Z,14.98
2023-05-31T04:45:26.921Z,12.25
2023-05-31T04:47:56.253Z,15.38
2023-05-31T04:50:24.271Z,16.58
2023-05-31T04:52:52.605Z,13.73
2023-05-31T04:55:20.510Z,11.82
2023-05-31T04:57:48.183Z,11.52
2023-05-31T05:00:17.274Z,10.48
2023-05-31T05:03:19.519Z,12.30
2023-05-31T05:05:49.100Z,13.23
2023-05-31T05:08:16.969Z,12.38
2023-05-31T05:10:44.788Z,11.02
2023-05-31T05:13:13.727Z,14.02
2023-05-31T05:15:43.376Z,11.93
2023-05-31T05:18:12.065Z,14.30
2023-05-31T05:20:40.509Z,15.73
2023-05-31T05:23:08.943Z,16.52
2023-05-31T05:25:37.166Z,15.52
2023-05-31T05:28:05.013Z,13.80
2023-05-31T05:30:33.610Z,14.83
2023-05-31T05:33:01.735Z,14.93
2023-05-31T05:35:30.363Z,14.75
2023-05-31T05:38:00.414Z,14.20
2023-05-31T05:40:28.037Z,15.68
2023-05-31T05:42:56.426Z,13.77
2023-05-31T05:45:24.973Z,15.30
2023-05-31T05:47:57.132Z,15.60
2023-05-31T05:50:25.631Z,12.00
2023-05-31T05:52:53.947Z,12.18
2023-05-31T05:55:22.317Z,12.83
2023-05-31T05:57:50.056Z,11.82
2023-05-31T06:00:41.618Z,12.93
2023-05-31T06:03:09.478Z,13.45
2023-05-31T06:05:37.433Z,11.88
2023-05-31T06:08:06.104Z,10.70
2023-05-31T06:10:33.777Z,14.13
2023-05-31T06:13:01.513Z,12.90
2023-05-31T06:15:29.367Z,15.70
2023-05-31T06:17:57.125Z,13.27
2023-05-31T06:20:24.805Z,15.60
2023-05-31T06:22:52.872Z,15.63
2023-05-31T06:25:21.790Z,17.23
2023-05-31T06:27:49.565Z,15.63
2023-05-31T06:30:17.965Z,15.38
2023-05-31T06:32:47.612Z,20.27
2023-05-31T06:35:24.072Z,15.23
2023-05-31T06:37:52.715Z,18.35
2023-05-31T06:40:20.438Z,17.70
2023-05-31T06:42:48.323Z,20.40
2023-05-31T06:45:29.315Z,15.93
2023-05-31T06:48:15.656Z,17.05
2023-05-31T06:51:03.398Z,17.90
2023-05-31T06:53:51.151Z,17.70
2023-05-31T06:56:25.079Z,15.93
2023-05-31T06:58:53.024Z,17.47
2023-05-31T07:01:20.779Z,14.05
2023-05-31T07:03:48.495Z,16.40
2023-05-31T07:06:16.477Z,16.77
2023-05-31T07:08:44.413Z,16.45
2023-05-31T07:11:30.593Z,15.97
2023-05-31T07:14:02.669Z,16.35
2023-05-31T07:16:30.888Z,16.48
2023-05-31T07:19:00.340Z,17.60
2023-05-31T07:21:28.085Z,16.48
2023-05-31T07:23:56.834Z,14.43
2023-05-31T07:26:24.421Z,17.52
2023-05-31T07:28:54.790Z,17.80
2023-05-31T07:31:23.588Z,20.40
2023-05-31T07:33:51.229Z,16.95
2023-05-31T07:36:19.561Z,16.20
2023-05-31T07:38:47.621Z,16.67
2023-05-31T07:41:16.697Z,16.58
2023-05-31T07:43:47.026Z,16.45
2023-05-31T07:46:14.963Z,18.00
2023-05-31T07:48:42.642Z,15.97
2023-05-31T07:51:10.446Z,15.38
2023-05-31T07:53:38.066Z,15.02
2023-05-31T07:56:05.936Z,16.67
2023-05-31T07:58:33.536Z,16.55
2023-05-31T08:01:01.762Z,13.83
2023-05-31T08:03:29.561Z,13.50
2023-05-31T08:05:57.749Z,15.57
2023-05-31T08:08:25.429Z,13.85
2023-05-31T08:10:53.554Z,14.73
2023-05-31T08:13:21.486Z,16.97
2023-05-31T08:15:49.144Z,13.13
2023-05-31T08:18:17.223Z,16.90
2023-05-31T08:20:49.597Z,16.27
2023-05-31T08:23:21.938Z,14.93
2023-05-31T08:25:50.120Z,13.93
2023-05-31T08:28:17.749Z,13.50
2023-05-31T08:30:46.039Z,13.05
2023-05-31T08:33:13.802Z,12.93
2023-05-31T08:35:42.187Z,18.90
2023-05-31T08:38:10.214Z,13.07
2023-05-31T08:40:38.849Z,21.35
2023-05-31T08:43:17.507Z,16.60
2023-05-31T08:45:45.409Z,16.33
2023-05-31T08:48:27.492Z,22.83
2023-05-31T08:50:57.562Z,20.63
2023-05-31T08:53:26.988Z,16.02
2023-05-31T08:55:55.284Z,17.40
2023-05-31T08:58:23.674Z,20.83
2023-05-31T09:00:51.490Z,19.45
2023-05-31T09:03:19.769Z,24.93
2023-05-31T09:05:47.566Z,18.25
2023-05-31T09:08:15.237Z,19.38
2023-05-31T09:10:42.892Z,19.23
2023-05-31T09:13:11.564Z,19.60
2023-05-31T09:15:40.801Z,16.80
2023-05-31T09:18:20.606Z,16.88
2023-05-31T09:20:50.022Z,19.55
2023-05-31T09:23:19.069Z,17.75
2023-05-31T09:25:52.163Z,16.23
2023-05-31T09:28:21.496Z,17.17
2023-05-31T09:31:08.766Z,17.38
2023-05-31T09:33:43.319Z,16.60
2023-05-31T09:36:17.087Z,16.75
2023-05-31T09:38:44.761Z,19.05
2023-05-31T09:41:22.457Z,29.07
2023-05-31T09:43:51.251Z,17.17
2023-05-31T09:46:21.722Z,15.98
2023-05-31T09:49:02.777Z,16.27
2023-05-31T09:51:35.486Z,15.32
2023-05-31T09:54:15.522Z,16.60
2023-05-31T09:56:45.120Z,14.35
2023-05-31T09:59:13.140Z,14.32
2023-05-31T10:01:41.185Z,19.85
2023-05-31T10:04:09.069Z,16.55
2023-05-31T10:06:37.598Z,14.90
2023-05-31T10:09:06.315Z,15.73
2023-05-31T10:11:36.273Z,15.13
2023-05-31T10:14:22.067Z,13.55
2023-05-31T10:17:00.513Z,15.65
2023-05-31T10:19:36.076Z,13.40
2023-05-31T10:22:05.619Z,12.82
2023-05-31T10:24:50.263Z,15.43
2023-05-31T10:27:22.955Z,13.90
2023-05-31T10:29:53.610Z,12.70
2023-05-31T10:32:26.533Z,12.03
2023-05-31T10:34:54.559Z,13.32
2023-05-31T10:37:23.269Z,13.68
2023-05-31T10:40:15.358Z,12.18
2023-05-31T10:43:01.901Z,14.30
2023-05-31T10:45:42.475Z,13.00
2023-05-31T10:48:22.168Z,15.07
2023-05-31T10:50:57.220Z,18.30
2023-05-31T10:53:31.178Z,13.65
2023-05-31T10:56:12.338Z,14.15
2023-05-31T10:58:58.396Z,16.43
2023-05-31T11:01:30.416Z,14.63
2023-05-31T11:03:58.997Z,14.80
2023-05-31T11:06:28.744Z,13.32
2023-05-31T11:09:19.308Z,15.10
2023-05-31T11:11:49.906Z,13.37
2023-05-31T11:14:17.544Z,12.38
2023-05-31T11:16:45.210Z,13.07
2023-05-31T11:19:21.154Z,13.48
2023-05-31T11:21:49.770Z,15.90
2023-05-31T11:24:52.787Z,12.67
2023-05-31T11:27:40.207Z,16.40
2023-05-31T11:30:14.209Z,13.82
2023-05-31T11:32:41.944Z,14.15
2023-05-31T11:35:16.800Z,14.50
2023-05-31T11:37:44.976Z,14.23
2023-05-31T11:40:15.705Z,12.77
2023-05-31T11:42:45.357Z,16.25
2023-05-31T11:45:21.504Z,13.25
2023-05-31T11:47:54.739Z,12.43
2023-05-31T11:50:25.178Z,12.70
2023-05-31T11:52:59.493Z,12.32
2023-05-31T11:55:36.539Z,19.35
2023-05-31T11:58:08.080Z,11.45
2023-05-31T12:00:36.186Z,11.27
2023-05-31T12:03:06.925Z,11.13
2023-05-31T12:05:34.824Z,15.20
2023-05-31T12:08:02.461Z,10.75
2023-05-31T12:10:32.465Z,11.88
2023-05-31T12:13:02.910Z,10.68
2023-05-31T12:15:32.546Z,10.03
2023-05-31T12:18:00.638Z,10.48
2023-05-31T12:20:29.365Z,12.75
2023-05-31T12:23:17.074Z,11.73
2023-05-31T12:25:46.532Z,9.27
2023-05-31T12:28:14.722Z,10.53
2023-05-31T12:30:49.238Z,12.02
2023-05-31T12:33:17.314Z,14.18
2023-05-31T12:35:47.086Z,10.38
2023-05-31T12:38:15.088Z,9.88
2023-05-31T12:40:44.220Z,13.33
2023-05-31T12:43:14.046Z,13.38
2023-05-31T12:45:42.710Z,11.18
2023-05-31T12:48:11.928Z,9.88
2023-05-31T12:50:47.163Z,10.75
2023-05-31T12:53:16.362Z,10.13
2023-05-31T12:55:44.177Z,9.07
2023-05-31T12:58:12.192Z,11.63
2023-05-31T13:00:39.933Z,9.48
2023-05-31T13:03:15.695Z,10.50
2023-05-31T13:05:43.720Z,10.30
2023-05-31T13:08:11.367Z,10.27
2023-05-31T13:10:39.038Z,9.68
2023-05-31T13:13:06.785Z,8.73
2023-05-31T13:15:34.565Z,10.13
2023-05-31T13:18:02.285Z,10.43
2023-05-31T13:20:30.603Z,13.93
2023-05-31T13:22:59.372Z,12.07
2023-05-31T13:25:27.639Z,9.77
2023-05-31T13:27:56.048Z,10.65
2023-05-31T13:30:23.851Z,10.00
2023-05-31T13:32:51.884Z,8.98
2023-05-31T13:35:19.566Z,10.10
2023-05-31T13:37:47.239Z,10.88
2023-05-31T13:40:14.953Z,10.85
2023-05-31T13:42:42.596Z,9.37
2023-05-31T13:45:10.841Z,10.63
2023-05-31T13:47:38.687Z,10.10
2023-05-31T13:50:06.939Z,11.00
2023-05-31T13:52:34.512Z,11.43
2023-05-31T13:55:02.180Z,9.77
2023-05-31T13:57:29.929Z,11.07
2023-05-31T14:00:00.877Z,11.77
2023-05-31T14:02:29.453Z,9.60
2023-05-31T14:04:57.208Z,12.27
2023-05-31T14:07:24.874Z,9.27
2023-05-31T14:09:52.527Z,12.73
2023-05-31T14:12:20.810Z,10.18
2023-05-31T14:14:48.500Z,10.55
2023-05-31T14:17:16.288Z,12.10
2023-05-31T14:19:43.914Z,9.83
2023-05-31T14:22:11.525Z,10.65
2023-05-31T14:24:39.145Z,12.38
2023-05-31T14:27:07.988Z,10.85
2023-05-31T14:29:35.734Z,11.27
2023-05-31T14:32:03.952Z,9.77
2023-05-31T14:34:31.661Z,12.45
2023-05-31T14:36:59.714Z,10.43
2023-05-31T14:39:28.121Z,12.93
2023-05-31T14:41:56.892Z,10.52
2023-05-31T14:44:24.556Z,11.93
2023-05-31T14:46:56.348Z,10.82
2023-05-31T14:49:24.058Z,11.75
2023-05-31T14:51:51.816Z,9.02
2023-05-31T14:54:19.706Z,10.07
2023-05-31T14:56:47.388Z,9.47
2023-05-31T14:59:15.159Z,10.45
2023-05-31T15:01:44.244Z,9.40
2023-05-31T15:04:12.533Z,11.18
2023-05-31T15:06:41.783Z,9.63
2023-05-31T15:09:11.690Z,9.00
2023-05-31T15:11:39.416Z,12.73
2023-05-31T15:14:08.986Z,11.07
2023-05-31T15:16:37.161Z,11.18
2023-05-31T15:19:04.777Z,9.60
2023-05-31T15:21:32.697Z,9.23
2023-05-31T15:24:00.467Z,10.30
2023-05-31T15:26:28.452Z,8.93
2023-05-31T15:28:56.952Z,9.43
2023-05-31T15:31:25.542Z,9.95
2023-05-31T15:33:53.530Z,11.53
2023-05-31T15:36:21.189Z,9.20
2023-05-31T15:38:51.480Z,11.63
2023-05-31T15:41:19.170Z,11.50
2023-05-31T15:43:46.816Z,10.68
2023-05-31T15:46:14.570Z,11.67
2023-05-31T15:48:42.234Z,11.05
2023-05-31T15:51:09.861Z,10.93
2023-05-31T15:53:37.523Z,11.65
2023-05-31T15:56:05.432Z,11.98
2023-05-31T15:58:33.048Z,10.13
2023-05-31T16:01:01.044Z,10.10
2023-05-31T16:03:30.246Z,10.40
2023-05-31T16:05:58.039Z,13.32
2023-05-31T16:08:26.250Z,9.65
2023-05-31T16:10:53.893Z,11.23
2023-05-31T16:13:21.527Z,10.25
2023-05-31T16:15:49.183Z,11.73
2023-05-31T16:18:16.890Z,16.17
2023-05-31T16:20:44.670Z,10.43
2023-05-31T16:23:12.360Z,11.30
2023-05-31T16:25:40.029Z,12.38
2023-05-31T16:28:07.661Z,11.63
2023-05-31T16:30:35.417Z,10.80
2023-05-31T16:33:03.301Z,10.30
2023-05-31T16:35:31.007Z,12.93
2023-05-31T16:37:58.658Z,11.45
2023-05-31T16:40:26.346Z,11.45
2023-05-31T16:42:55.795Z,11.68
2023-05-31T16:45:24.781Z,11.75
2023-05-31T16:47:52.824Z,13.47
2023-05-31T16:50:20.758Z,10.02
2023-05-31T16:52:53.012Z,10.45
2023-05-31T16:55:21.944Z,11.27
2023-05-31T16:57:49.736Z,13.38
2023-05-31T17:00:18.007Z,10.67
2023-05-31T17:02:45.620Z,10.73
2023-05-31T17:05:14.505Z,11.73
2023-05-31T17:07:42.105Z,10.30
2023-05-31T17:10:10.072Z,10.30
2023-05-31T17:12:38.761Z,10.53
2023-05-31T17:15:07.473Z,9.52
2023-05-31T17:17:35.135Z,10.80
2023-05-31T17:20:04.597Z,13.02
2023-05-31T17:22:32.275Z,10.65
2023-05-31T17:24:59.863Z,9.40
2023-05-31T17:27:27.458Z,9.98
2023-05-31T17:29:55.120Z,10.05
2023-05-31T17:32:22.852Z,11.05
2023-05-31T17:34:50.585Z,9.30
2023-05-31T17:37:18.218Z,10.60
2023-05-31T17:39:46.017Z,9.55
2023-05-31T17:42:13.620Z,10.05
2023-05-31T17:44:41.348Z,11.57
2023-05-31T17:47:10.002Z,11.50
2023-05-31T17:49:37.625Z,10.70
2023-05-31T17:52:07.342Z,11.35
2023-05-31T17:54:34.975Z,13.13
2023-05-31T17:57:02.483Z,12.98
2023-05-31T17:59:30.613Z,15.00
2023-05-31T18:01:59.150Z,15.33
2023-05-31T18:04:27.693Z,14.77
2023-05-31T18:06:55.546Z,16.10
2023-05-31T18:09:24.702Z,15.25
2023-05-31T18:11:53.426Z,17.38
2023-05-31T18:14:21.076Z,17.70
2023-05-31T18:16:51.112Z,15.82
2023-05-31T18:19:19.053Z,13.25
2023-05-31T18:21:46.970Z,17.65
2023-05-31T18:24:14.842Z,13.02
2023-05-31T18:26:42.405Z,14.40
2023-05-31T18:29:10.755Z,11.75
2023-05-31T18:31:38.823Z,10.32
2023-05-31T18:34:06.549Z,8.15
2023-05-31T18:36:34.171Z,10.50
2023-05-31T18:39:01.797Z,11.07
2023-05-31T18:41:29.380Z,10.63
2023-05-31T18:43:57.016Z,10.38
2023-05-31T18:46:25.097Z,10.63
2023-05-31T18:48:52.760Z,8.57
2023-05-31T18:51:20.425Z,8.47
2023-05-31T18:53:48.049Z,9.38
2023-05-31T18:56:16.602Z,9.45
2023-05-31T18:58:44.921Z,9.23
2023-05-31T19:01:12.638Z,9.00
2023-05-31T19:03:40.554Z,8.10
2023-05-31T19:06:08.785Z,8.57
2023-05-31T19:08:36.519Z,8.90
2023-05-31T19:11:04.215Z,9.30
2023-05-31T19:13:31.879Z,9.63
2023-05-31T19:15:59.715Z,9.23
2023-05-31T19:18:27.548Z,7.90
2023-05-31T19:20:55.232Z,8.40
2023-05-31T19:23:26.305Z,8.52
2023-05-31T19:25:54.166Z,10.18
2023-05-31T19:28:21.731Z,10.07
2023-05-31T19:30:49.486Z,9.57
2023-05-31T19:33:19.294Z,8.75
2023-05-31T19:35:49.152Z,7.93
2023-05-31T19:38:17.018Z,9.27
2023-05-31T19:40:44.690Z,8.97
2023-05-31T19:43:12.381Z,9.32
2023-05-31T19:45:40.041Z,10.77
2023-05-31T19:48:10.681Z,7.82
2023-05-31T19:50:38.441Z,7.22
2023-05-31T19:53:06.114Z,8.27
2023-05-31T19:55:33.888Z,8.15
2023-05-31T19:58:01.628Z,7.63
2023-05-31T20:00:29.251Z,7.57
2023-05-31T20:02:56.989Z,6.90
2023-05-31T20:05:24.953Z,7.57
2023-05-31T20:07:52.669Z,8.10
2023-05-31T20:10:20.494Z,8.15
2023-05-31T20:12:48.112Z,8.20
2023-05-31T20:15:16.756Z,8.35
2023-05-31T20:17:44.448Z,6.70
2023-05-31T20:20:13.244Z,7.22
2023-05-31T20:22:41.014Z,8.20
2023-05-31T20:25:08.972Z,7.20
2023-05-31T20:27:36.584Z,8.10
2023-05-31T20:30:04.638Z,9.27
2023-05-31T20:32:32.281Z,7.85
2023-05-31T20:35:00.210Z,8.25
2023-05-31T20:37:27.987Z,7.22
2023-05-31T20:39:55.869Z,7.22
2023-05-31T20:42:23.537Z,8.30
2023-05-31T20:44:51.220Z,8.25
2023-05-31T20:47:19.103Z,7.13
2023-05-31T20:49:46.828Z,8.10
2023-05-31T20:52:14.476Z,7.38
2023-05-31T20:54:44.278Z,8.47
2023-05-31T20:57:12.373Z,8.38
2023-05-31T20:59:40.576Z,11.57
2023-05-31T21:02:08.258Z,6.68
2023-05-31T21:04:35.869Z,7.85
2023-05-31T21:07:03.820Z,7.27
2023-05-31T21:09:31.482Z,6.80
2023-05-31T21:11:59.763Z,7.63
2023-05-31T21:14:27.379Z,7.20
2023-05-31T21:16:55.793Z,8.18
2023-05-31T21:19:23.424Z,6.90
2023-05-31T21:21:51.383Z,7.28
2023-05-31T21:24:19.209Z,7.40
2023-05-31T21:26:46.860Z,8.13
2023-05-31T21:29:14.521Z,8.45
2023-05-31T21:31:42.430Z,7.67
2023-05-31T21:34:10.178Z,7.28
2023-05-31T21:36:37.819Z,7.35
2023-05-31T21:39:05.433Z,7.18
2023-05-31T21:41:33.113Z,7.95
2023-05-31T21:44:00.933Z,7.53
2023-05-31T21:46:28.583Z,7.95
2023-05-31T21:48:56.650Z,9.50
2023-05-31T21:51:24.243Z,8.02
2023-05-31T21:53:51.824Z,7.63
2023-05-31T21:56:19.531Z,7.20
2023-05-31T21:58:47.111Z,8.43
2023-05-31T22:01:14.794Z,7.75
2023-05-31T22:03:42.730Z,7.53
2023-05-31T22:06:10.509Z,8.93
2023-05-31T22:08:38.164Z,8.87
2023-05-31T22:11:05.948Z,7.93
2023-05-31T22:13:33.722Z,8.40
2023-05-31T22:16:01.427Z,8.82
2023-05-31T22:18:32.204Z,10.13
2023-05-31T22:21:00.237Z,8.37
2023-05-31T22:23:28.052Z,9.15
2023-05-31T22:25:55.984Z,9.20
2023-05-31T22:28:23.764Z,8.65
2023-05-31T22:30:52.445Z,8.65
2023-05-31T22:33:20.165Z,8.93
2023-05-31T22:35:47.787Z,7.40
2023-05-31T22:38:15.588Z,7.72
2023-05-31T22:40:43.290Z,8.98
2023-05-31T22:43:11.114Z,9.50
2023-05-31T22:45:38.750Z,10.57
2023-05-31T22:48:06.467Z,8.98
2023-05-31T22:50:34.134Z,9.80
2023-05-31T22:53:01.723Z,6.90
2023-05-31T22:55:29.381Z,8.40
2023-05-31T22:57:57.286Z,9.17
2023-05-31T23:00:24.878Z,10.98
2023-05-31T23:02:53.376Z,8.45
2023-05-31T23:05:26.758Z,8.30
2023-05-31T23:08:02.687Z,7.75
2023-05-31T23:10:33.815Z,10.40
2023-05-31T23:13:03.445Z,7.15
2023-05-31T23:15:37.013Z,10.05
2023-05-31T23:18:09.025Z,8.00
2023-05-31T23:20:41.120Z,9.23
2023-05-31T23:23:09.134Z,8.97
2023-05-31T23:25:36.880Z,7.40
2023-05-31T23:28:04.563Z,6.95
2023-05-31T23:30:32.233Z,7.70
2023-05-31T23:32:59.877Z,7.10
2023-05-31T23:35:27.580Z,9.47
2023-05-31T23:37:55.230Z,6.50
2023-05-31T23:40:22.806Z,8.60
2023-05-31T23:42:50.748Z,7.32
2023-05-31T23:45:18.551Z,7.20
2023-05-31T23:47:46.730Z,8.43
2023-05-31T23:50:14.331Z,6.93
2023-05-31T23:52:42.006Z,6.15
2023-05-31T23:55:10.158Z,7.90
2023-05-31T23:57:37.789Z,7.13
